Oklahoma City/Tinker AFB, Oklahoma
Current Conditions -  °F | °C
As of 9:58 PM on Sunday 19 Oct 2014 (Local Time) from KTIK Reporting Station
Broken Clouds Broken Clouds  
Wind Chill: 62°   Ceiling: 12000
Heat Index: 62°   Visibility: 10mi
Dew Point: 54°   Wind: 8mph
Humidity: 75%   Direction: 170°S
Pressure: 30.05"   Gusts: NA
Location:  35.42°N, 97.38°W
Report Text: KTIK 200258Z AUTO 17007KT 10SM BKN120 17/12 A3005 RMK AO2 SLP178 T01680124 53006 $
Loading
Personal Weather Stations






























Interactive Weather Map
Tropical Storm Tracking
New forecast layout! Learn more

10-Day Weather Forecast

Advertisements
Track Severe Weather on mobile